Time;durP1;ratioP1;P1;durP2;ratioP2;P2;SDS_P1;SDS_P2;PMS_P1;PMS_P2;Temp;Humidity;BMP_temperature;BMP_pressure;BME280_temperature;BME280_humidity;BME280_pressure;Samples;Min_cycle;Max_cycle;Signal;HPM_P1;HPM_P2
2021/06/20 00:00:28;;;;;;;12.57;8.00;;;19.70;99.90;;;;;;3622897;39;20416;-76
2021/06/20 00:02:55;;;;;;;11.87;8.30;;;19.80;99.90;;;;;;3616950;39;20388;-76
2021/06/20 00:05:23;;;;;;;10.03;7.60;;;19.80;99.90;;;;;;3616237;39;20432;-77
2021/06/20 00:07:50;;;;;;;8.10;6.23;;;19.80;99.90;;;;;;3621942;39;20424;-76
2021/06/20 00:10:22;;;;;;;12.03;8.07;;;19.70;99.90;;;;;;3617513;39;20497;-76
2021/06/20 00:12:49;;;;;;;9.47;7.80;;;19.70;99.90;;;;;;3616173;39;20436;-76
2021/06/20 00:15:17;;;;;;;9.53;8.03;;;19.70;99.90;;;;;;3618015;39;20424;-76
2021/06/20 00:17:44;;;;;;;11.47;9.40;;;19.70;99.90;;;;;;3616122;39;20397;-77
2021/06/20 00:20:12;;;;;;;10.77;9.77;;;19.70;99.90;;;;;;3616012;39;22960;-78
2021/06/20 00:22:38;;;;;;;17.00;14.77;;;19.70;99.90;;;;;;3616547;39;20383;-76
2021/06/20 00:25:06;;;;;;;22.60;16.70;;;19.80;99.90;;;;;;3613478;39;20520;-77
2021/06/20 00:27:32;;;;;;;16.37;13.93;;;19.80;99.90;;;;;;3616043;39;20503;-77
2021/06/20 00:29:58;;;;;;;15.60;13.93;;;19.70;99.90;;;;;;3613469;39;20409;-77
2021/06/20 00:32:23;;;;;;;17.33;12.53;;;19.70;99.90;;;;;;3616563;39;20433;-77
2021/06/20 00:34:50;;;;;;;12.57;11.33;;;19.70;99.90;;;;;;3613571;39;20449;-77
2021/06/20 00:37:16;;;;;;;13.00;11.70;;;19.80;99.90;;;;;;3615676;39;20250;-77
2021/06/20 00:39:42;;;;;;;12.40;11.07;;;19.80;99.90;;;;;;3616840;39;20498;-77
2021/06/20 00:42:08;;;;;;;10.03;9.00;;;19.80;99.90;;;;;;3614600;39;20222;-78
2021/06/20 00:44:49;;;;;;;10.70;9.30;;;19.80;99.90;;;;;;3617930;39;20235;-77
2021/06/20 00:47:17;;;;;;;13.07;8.70;;;19.70;99.90;;;;;;3616646;39;20389;-77
2021/06/20 00:49:43;;;;;;;13.83;9.40;;;19.70;99.90;;;;;;3617821;39;20401;-78
2021/06/20 00:52:09;;;;;;;11.23;10.10;;;19.70;99.90;;;;;;3614045;39;20828;-77
2021/06/20 00:54:34;;;;;;;10.60;8.70;;;19.70;99.90;;;;;;3604063;39;20283;-77
2021/06/20 00:57:01;;;;;;;13.00;10.17;;;19.60;99.90;;;;;;3618491;39;20430;-77
2021/06/20 00:59:29;;;;;;;20.27;11.60;;;19.60;99.90;;;;;;3618386;39;20554;-78
2021/06/20 01:01:55;;;;;;;16.87;11.17;;;19.60;99.90;;;;;;3616652;39;20401;-77
2021/06/20 01:06:49;;;;;;;13.70;11.00;;;19.50;99.90;;;;;;3620417;39;20484;-76
2021/06/20 01:09:15;;;;;;;15.70;11.30;;;19.50;99.90;;;;;;3600734;39;20452;-75
2021/06/20 01:11:41;;;;;;;15.97;12.27;;;19.50;99.90;;;;;;3612133;39;21126;-75
2021/06/20 01:14:07;;;;;;;15.87;11.90;;;19.50;99.90;;;;;;3623239;39;20412;-75
2021/06/20 01:16:33;;;;;;;14.07;12.00;;;19.40;99.90;;;;;;3604276;39;20497;-75
2021/06/20 01:18:59;;;;;;;10.77;9.77;;;19.50;99.90;;;;;;3623283;39;20468;-75
2021/06/20 01:21:25;;;;;;;9.07;7.57;;;;;;;;;;3618157;39;20207;-74
2021/06/20 01:23:53;;;;;;;9.47;8.10;;;;;;;;;;3606993;39;20440;-75
2021/06/20 01:26:19;;;;;;;9.40;7.87;;;;;;;;;;3603986;39;20972;-75
2021/06/20 01:28:52;;;;;;;7.53;6.00;;;;;;;;;;3607254;39;20436;-74
2021/06/20 01:31:19;;;;;;;11.27;6.70;;;;;;;;;;3616396;39;20392;-75
2021/06/20 01:33:46;;;;;;;9.50;7.23;;;;;;;;;;3606616;39;20413;-75
2021/06/20 01:36:13;;;;;;;7.30;5.90;;;;;;;;;;3607474;39;20401;-75
2021/06/20 01:38:40;;;;;;;6.23;5.60;;;;;;;;;;3614685;39;20429;-74
2021/06/20 01:41:07;;;;;;;8.47;4.83;;;;;;;;;;3617425;39;20817;-74
2021/06/20 01:43:34;;;;;;;8.70;5.73;;;;;;;;;;3607073;39;20448;-74
2021/06/20 01:46:00;;;;;;;9.10;4.30;;;;;;;;;;3608457;39;20809;-74
2021/06/20 01:48:26;;;;;;;6.50;4.87;;;;;;;;;;3600101;39;20416;-74
2021/06/20 01:50:52;;;;;;;7.30;3.57;;;;;;;;;;3607101;39;20396;-75
2021/06/20 01:53:18;;;;;;;8.37;3.90;;;;;;;;;;3605751;39;20400;-74
2021/06/20 01:55:45;;;;;;;7.80;4.40;;;;;;;;;;3607404;39;20425;-74
2021/06/20 01:58:13;;;;;;;6.00;4.47;;;;;;;;;;3612074;39;20456;-74
2021/06/20 02:00:40;;;;;;;8.50;4.50;;;;;;;;;;3617074;39;20699;-75
2021/06/20 02:03:10;;;;;;;5.70;4.27;;;;;;;;;;3597879;39;20785;-74
2021/06/20 02:05:37;;;;;;;7.57;4.13;;;;;;;;;;3602102;39;20426;-74
2021/06/20 02:08:03;;;;;;;5.87;3.83;;;;;;;;;;3601351;39;20462;-75
2021/06/20 02:10:30;;;;;;;4.90;3.27;;;;;;;;;;3605759;39;22247;-75
2021/06/20 02:12:56;;;;;;;6.57;3.53;;;;;;;;;;3604176;39;20405;-74
2021/06/20 02:15:23;;;;;;;5.23;4.10;;;;;;;;;;3607982;39;20418;-74
2021/06/20 02:17:50;;;;;;;7.23;3.67;;;;;;;;;;3586768;39;20442;-74
2021/06/20 02:20:18;;;;;;;3.77;2.90;;;;;;;;;;3604155;39;20399;-74
2021/06/20 02:22:45;;;;;;;10.13;3.87;;;;;;;;;;3604966;39;20418;-74
2021/06/20 02:25:12;;;;;;;14.43;3.97;;;;;;;;;;3602323;39;20410;-74
2021/06/20 02:27:38;;;;;;;6.93;4.40;;;;;;;;;;3606917;39;20839;-74
2021/06/20 02:30:05;;;;;;;11.07;4.27;;;;;;;;;;3606029;39;20858;-74
2021/06/20 02:32:31;;;;;;;9.13;4.10;;;;;;;;;;3605525;39;20397;-74
2021/06/20 02:34:58;;;;;;;5.33;3.13;;;;;;;;;;3605569;39;20406;-74
2021/06/20 02:37:24;;;;;;;8.43;4.07;;;;;;;;;;3606021;39;20469;-74
2021/06/20 02:39:51;;;;;;;9.10;4.47;;;;;;;;;;3602239;39;20438;-74
2021/06/20 02:42:17;;;;;;;8.30;4.17;;;;;;;;;;3604395;39;20418;-74
2021/06/20 02:44:44;;;;;;;7.63;3.67;;;;;;;;;;3606100;39;20400;-74
2021/06/20 02:47:10;;;;;;;6.93;3.40;;;;;;;;;;3595046;39;20430;-74
2021/06/20 02:49:38;;;;;;;11.17;3.60;;;;;;;;;;3604178;39;20392;-74
2021/06/20 02:52:08;;;;;;;8.70;3.30;;;;;;;;;;3606269;39;20478;-74
2021/06/20 02:54:35;;;;;;;11.37;4.03;;;;;;;;;;3606589;39;20417;-74
2021/06/20 02:57:01;;;;;;;9.40;5.17;;;;;;;;;;3608857;39;20422;-74
2021/06/20 02:59:27;;;;;;;12.43;3.80;;;;;;;;;;3607271;39;21080;-74
2021/06/20 03:01:53;;;;;;;8.00;3.13;;;;;;;;;;3608126;39;21519;-74
2021/06/20 03:04:19;;;;;;;5.73;3.40;;;;;;;;;;3609415;39;20431;-74
2021/06/20 03:06:45;;;;;;;5.97;3.20;;;;;;;;;;3608790;39;20430;-74
2021/06/20 03:09:12;;;;;;;5.97;3.53;;;;;;;;;;3607659;39;20425;-74
2021/06/20 03:11:42;;;;;;;10.63;4.43;;;;;;;;;;3593301;39;20405;-74
2021/06/20 03:14:09;;;;;;;7.80;4.10;;;;;;;;;;3595388;39;20430;-74
2021/06/20 03:16:36;;;;;;;4.67;3.87;;;;;;;;;;3607725;39;20517;-74
2021/06/20 03:19:02;;;;;;;9.97;4.70;;;;;;;;;;3609214;39;20747;-74
2021/06/20 03:21:28;;;;;;;8.87;4.80;;;;;;;;;;3606815;39;20712;-74
2021/06/20 03:23:54;;;;;;;14.27;3.87;;;;;;;;;;3600878;39;20819;-74
2021/06/20 03:26:20;;;;;;;11.17;5.20;;;;;;;;;;3594740;39;20968;-74
2021/06/20 03:28:46;;;;;;;7.93;4.73;;;;;;;;;;3597857;39;20457;-74
2021/06/20 03:31:12;;;;;;;5.10;4.43;;;;;;;;;;3597016;39;20448;-74
2021/06/20 03:33:38;;;;;;;11.30;5.70;;;;;;;;;;3605352;39;20438;-74
2021/06/20 03:36:05;;;;;;;11.27;5.27;;;;;;;;;;3603210;39;20598;-74
2021/06/20 03:38:31;;;;;;;9.60;5.00;;;;;;;;;;3605781;39;20401;-74
2021/06/20 03:40:57;;;;;;;8.50;4.90;;;;;;;;;;3603841;39;20403;-74
2021/06/20 03:43:24;;;;;;;7.43;4.00;;;;;;;;;;3604635;39;20829;-76
2021/06/20 03:45:50;;;;;;;6.07;4.30;;;;;;;;;;3600338;39;20421;-75
2021/06/20 03:48:16;;;;;;;6.33;5.27;;;;;;;;;;3603973;39;20390;-75
2021/06/20 03:50:42;;;;;;;8.30;4.33;;;;;;;;;;3603042;39;20413;-75
2021/06/20 03:53:08;;;;;;;12.37;4.33;;;;;;;;;;3605283;39;20796;-75
2021/06/20 03:55:34;;;;;;;15.87;5.23;;;;;;;;;;3599784;39;20399;-75
2021/06/20 03:58:03;;;;;;;12.23;4.30;;;;;;;;;;3603646;39;21508;-75
2021/06/20 04:00:29;;;;;;;9.30;5.10;;;;;;;;;;3604706;39;20903;-75
2021/06/20 04:02:55;;;;;;;5.47;4.67;;;;;;;;;;3605007;39;20442;-75
2021/06/20 04:05:21;;;;;;;11.27;5.13;;;;;;;;;;3605587;39;20428;-75
2021/06/20 04:07:48;;;;;;;7.83;5.27;;;;;;;;;;3602975;39;21506;-75
2021/06/20 04:10:14;;;;;;;9.67;4.87;;;;;;;;;;3604871;39;20523;-75
2021/06/20 04:12:41;;;;;;;9.20;5.37;;;;;;;;;;3604969;39;20493;-75
2021/06/20 04:15:07;;;;;;;5.63;5.03;;;;;;;;;;3605299;39;20531;-75
2021/06/20 04:17:34;;;;;;;9.83;5.30;;;;;;;;;;3603708;39;20427;-75
2021/06/20 04:20:01;;;;;;;11.70;5.90;;;;;;;;;;3604384;39;20417;-75
2021/06/20 04:22:27;;;;;;;6.07;4.90;;;;;;;;;;3603529;39;20665;-75
2021/06/20 04:24:53;;;;;;;7.00;4.43;;;;;;;;;;3603329;39;20443;-75
2021/06/20 04:27:20;;;;;;;6.40;4.17;;;;;;;;;;3604480;39;20900;-75
2021/06/20 04:29:46;;;;;;;6.47;5.20;;;;;;;;;;3604408;39;20841;-75
2021/06/20 04:32:12;;;;;;;7.57;4.60;;;;;;;;;;3604221;39;20409;-75
2021/06/20 04:34:38;;;;;;;8.80;5.13;;;;;;;;;;3605562;39;20446;-75
2021/06/20 04:37:04;;;;;;;7.60;3.43;;;;;;;;;;3604710;39;22524;-75
2021/06/20 04:39:30;;;;;;;9.90;6.43;;;;;;;;;;3601519;39;20443;-75
2021/06/20 04:41:56;;;;;;;6.57;4.47;;;;;;;;;;3599894;39;20580;-76
2021/06/20 04:47:07;;;;;;;3.90;3.40;;;;;;;;;;3604679;39;20386;-76
2021/06/20 04:49:33;;;;;;;3.50;3.20;;;;;;;;;;3606915;39;21230;-76
2021/06/20 04:52:00;;;;;;;5.87;4.10;;;;;;;;;;3605811;39;20402;-75
2021/06/20 04:54:26;;;;;;;3.70;2.80;;;;;;;;;;3603770;39;20406;-75
2021/06/20 04:56:52;;;;;;;3.03;2.73;;;;;;;;;;3606889;39;20822;-75
2021/06/20 04:59:18;;;;;;;4.47;3.07;;;;;;;;;;3608632;39;20770;-75
2021/06/20 05:01:44;;;;;;;6.30;3.70;;;;;;;;;;3608331;39;20426;-75
2021/06/20 05:04:10;;;;;;;3.40;3.10;;;;;;;;;;3610138;39;20557;-75
2021/06/20 05:06:36;;;;;;;7.10;3.40;;;;;;;;;;3608406;39;20401;-75
2021/06/20 05:09:02;;;;;;;4.67;3.47;;;;;;;;;;3608160;39;20409;-75
2021/06/20 05:11:28;;;;;;;11.23;3.60;;;;;;;;;;3607520;39;20395;-75
2021/06/20 05:13:54;;;;;;;3.30;3.00;;;;;;;;;;3606585;39;20398;-74
2021/06/20 05:16:20;;;;;;;7.67;2.90;;;;;;;;;;3604125;39;20748;-75
2021/06/20 05:18:46;;;;;;;5.90;3.17;;;;;;;;;;3607094;39;20963;-74
2021/06/20 05:21:13;;;;;;;7.77;3.77;;;;;;;;;;3606880;39;20582;-74
2021/06/20 05:23:39;;;;;;;3.70;3.40;;;;;;;;;;3606836;39;20425;-74
2021/06/20 05:26:05;;;;;;;8.53;3.40;;;;;;;;;;3605960;39;20454;-75
2021/06/20 05:28:32;;;;;;;5.87;3.00;;;;;;;;;;3607438;39;20836;-74
2021/06/20 05:30:58;;;;;;;3.67;2.90;;;;;;;;;;3607337;39;20416;-74
2021/06/20 05:33:24;;;;;;;3.40;3.10;;;;;;;;;;3605415;39;20436;-74
2021/06/20 05:35:50;;;;;;;3.70;3.40;;;;;;;;;;3605318;39;20437;-75
2021/06/20 05:38:16;;;;;;;4.13;3.00;;;;;;;;;;3608298;39;20398;-74
2021/06/20 05:40:43;;;;;;;2.40;2.20;;;;;;;;;;3607890;39;20442;-75
2021/06/20 05:43:09;;;;;;;5.63;2.60;;;;;;;;;;3607309;39;20490;-74
2021/06/20 05:45:36;;;;;;;5.03;3.17;;;;;;;;;;3614082;39;20430;-74
2021/06/20 05:48:02;;;;;;;8.13;3.00;;;;;;;;;;3607460;39;20410;-74
2021/06/20 05:50:28;;;;;;;7.33;3.10;;;;;;;;;;3608285;39;20414;-74
2021/06/20 05:52:54;;;;;;;8.23;2.47;;;;;;;;;;3607346;39;20402;-74
2021/06/20 05:55:21;;;;;;;4.50;3.07;;;;;;;;;;3606727;39;20390;-75
2021/06/20 05:57:47;;;;;;;3.73;3.40;;;;;;;;;;3607867;39;20410;-74
2021/06/20 06:00:13;;;;;;;3.63;3.00;;;;;;;;;;3605644;39;20406;-74
2021/06/20 06:02:40;;;;;;;4.40;3.33;;;;;;;;;;3608412;39;20415;-74
2021/06/20 06:05:06;;;;;;;4.07;3.37;;;;;;;;;;3607410;39;20413;-75
2021/06/20 06:07:32;;;;;;;6.53;3.33;;;;;;;;;;3605041;39;20406;-75
2021/06/20 06:09:59;;;;;;;3.97;2.60;;;;;;;;;;3607518;39;20391;-75
2021/06/20 06:12:25;;;;;;;4.73;3.40;;;;;;;;;;3606499;39;20407;-75
2021/06/20 06:14:52;;;;;;;5.13;4.10;;;;;;;;;;3606382;39;20811;-75
2021/06/20 06:17:21;;;;;;;3.40;3.10;;;;;;;;;;3606918;39;20450;-77
2021/06/20 06:19:48;;;;;;;3.50;3.20;;;;;;;;;;3614842;39;20413;-74
2021/06/20 06:22:18;;;;;;;5.87;3.70;;;;;;;;;;3608473;39;20894;-75
2021/06/20 06:24:45;;;;;;;4.50;4.00;;;;;;;;;;3607956;39;20406;-75
2021/06/20 06:27:12;;;;;;;5.93;3.40;;;;;;;;;;3604171;39;20402;-75
2021/06/20 06:29:38;;;;;;;16.40;4.60;;;;;;;;;;3607072;39;20457;-75
2021/06/20 06:32:05;;;;;;;4.53;2.80;;;;;;;;;;3606553;39;20426;-75
2021/06/20 06:34:31;;;;;;;4.80;3.40;;;;;;;;;;3607549;39;20386;-75
2021/06/20 06:36:57;;;;;;;3.77;3.33;;;;;;;;;;3607274;39;20422;-75
2021/06/20 06:39:25;;;;;;;4.70;3.37;;;;;;;;;;3606476;39;20406;-75
2021/06/20 06:41:51;;;;;;;4.87;3.80;;;;;;;;;;3604980;39;20425;-75
2021/06/20 06:44:18;;;;;;;7.23;3.40;;;;;;;;;;3605914;39;20374;-75
2021/06/20 06:46:44;;;;;;;11.53;4.40;;;;;;;;;;3606324;39;20409;-75
2021/06/20 06:49:10;;;;;;;4.87;4.23;;;;;;;;;;3608219;39;20437;-75
2021/06/20 06:51:36;;;;;;;4.83;4.20;;;;;;;;;;3607525;39;20417;-75
2021/06/20 06:54:03;;;;;;;3.60;3.30;;;;;;;;;;3607459;39;20390;-74
2021/06/20 06:56:29;;;;;;;6.10;3.40;;;;;;;;;;3606278;39;20578;-74
2021/06/20 06:58:55;;;;;;;3.40;3.10;;;;;;;;;;3606851;39;20414;-74
2021/06/20 07:01:21;;;;;;;4.60;4.20;;;;;;;;;;3606651;39;20821;-74
2021/06/20 07:03:48;;;;;;;4.00;3.60;;;;;;;;;;3606923;39;20437;-74
2021/06/20 07:06:14;;;;;;;4.90;4.23;;;;;;;;;;3604848;39;20834;-74
2021/06/20 07:08:40;;;;;;;4.40;4.10;;;;;;;;;;3607501;39;20405;-74
2021/06/20 07:11:07;;;;;;;4.37;4.00;;;;;;;;;;3606442;39;20407;-74
2021/06/20 07:13:33;;;;;;;3.87;3.57;;;;;;;;;;3607564;39;20496;-74
2021/06/20 07:15:59;;;;;;;8.50;3.63;;;;;;;;;;3607698;39;20482;-74
2021/06/20 07:18:26;;;;;;;4.07;3.77;;;;;;;;;;3608272;39;20930;-74
2021/06/20 07:20:53;;;;;;;7.57;3.83;;;;;;;;;;3598000;39;20495;-76
2021/06/20 07:23:19;;;;;;;3.23;3.03;;;;;;;;;;3607228;39;20490;-76
2021/06/20 07:25:45;;;;;;;5.37;4.07;;;;;;;;;;3606645;39;20873;-76
2021/06/20 07:28:12;;;;;;;5.47;3.77;;;;;;;;;;3609641;39;20406;-76
2021/06/20 07:30:39;;;;;;;3.40;3.20;;;;;;;;;;3606509;39;20436;-76
2021/06/20 07:33:05;;;;;;;3.73;3.43;;;;;;;;;;3607591;39;20414;-76
2021/06/20 07:35:31;;;;;;;3.83;3.47;;;;;;;;;;3609337;39;20421;-74
2021/06/20 07:37:57;;;;;;;3.70;3.40;;;;;;;;;;3608824;39;20404;-74
2021/06/20 07:40:24;;;;;;;4.00;3.70;;;;;;;;;;3599509;39;20473;-74
2021/06/20 07:42:50;;;;;;;4.17;3.80;;;;;;;;;;3606466;39;20383;-74
2021/06/20 07:45:16;;;;;;;4.10;2.97;;;;;;;;;;3607324;39;20454;-74
2021/06/20 07:47:43;;;;;;;5.60;4.17;;;;;;;;;;3605894;39;20428;-74
2021/06/20 07:50:11;;;;;;;4.07;3.73;;;;;;;;;;3606311;39;20874;-74
2021/06/20 07:52:37;;;;;;;4.23;3.77;;;;;;;;;;3608363;39;20494;-74
2021/06/20 07:55:04;;;;;;;3.60;3.30;;;;;;;;;;3608101;39;21238;-75
2021/06/20 07:57:30;;;;;;;3.40;3.20;;;;;;;;;;3608844;39;20405;-75
2021/06/20 07:59:56;;;;;;;4.53;3.10;;;;;;;;;;3607992;39;20885;-74
2021/06/20 08:02:23;;;;;;;3.90;3.50;;;;;;;;;;3607429;39;20491;-74
2021/06/20 08:04:49;;;;;;;3.40;3.20;;;;;;;;;;3605951;39;20405;-76
2021/06/20 08:07:16;;;;;;;3.47;3.17;;;;;;;;;;3608223;39;20434;-74
2021/06/20 08:09:43;;;;;;;4.10;3.80;;;;;;;;;;3617724;39;20532;-76
2021/06/20 08:12:09;;;;;;;4.50;3.60;;;;;;;;;;3599086;39;20419;-74
2021/06/20 08:14:37;;;;;;;5.70;3.80;;;;;;;;;;3606263;39;21002;-74
2021/06/20 08:17:03;;;;;;;3.90;3.70;;;;;;;;;;3603516;39;20798;-73
2021/06/20 08:19:29;;;;;;;3.60;3.37;;;;;;;;;;3597963;39;20422;-73
2021/06/20 08:21:55;;;;;;;3.93;3.60;;;;;;;;;;3596472;39;20436;-73
2021/06/20 08:24:21;;;;;;;3.97;3.57;;;;;;;;;;3607958;39;20433;-73
2021/06/20 08:26:48;;;;;;;4.00;3.80;;;;;;;;;;3609176;39;20507;-73
2021/06/20 08:29:14;;;;;;;4.13;3.93;;;;;;;;;;3608658;39;20413;-74
2021/06/20 08:31:41;;;;;;;4.60;3.47;;;;;;;;;;3605682;39;20522;-74
2021/06/20 08:34:07;;;;;;;5.90;3.20;;;;;;;;;;3607914;39;20493;-73
2021/06/20 08:36:34;;;;;;;3.70;3.60;;;;;;;;;;3607086;39;20425;-73
2021/06/20 08:39:00;;;;;;;4.10;3.50;;;;;;;;;;3608187;39;20421;-74
2021/06/20 08:41:28;;;;;;;5.30;3.30;;;;;;;;;;3607950;39;20430;-73
2021/06/20 08:43:54;;;;;;;3.63;3.43;;;;;;;;;;3608183;39;20395;-73
2021/06/20 08:46:21;;;;;;;4.87;3.93;;;;;;;;;;3597354;39;20433;-73
2021/06/20 08:48:47;;;;;;;4.40;4.10;;;;;;;;;;3605516;39;20413;-73
2021/06/20 08:51:13;;;;;;;3.60;3.30;;;;;;;;;;3604788;39;20481;-73
2021/06/20 08:53:39;;;;;;;3.40;3.20;;;;;;;;;;3608518;39;20402;-73
2021/06/20 08:56:05;;;;;;;5.67;3.40;;;;;;;;;;3606406;39;20429;-73
2021/06/20 08:58:34;;;;;;;5.73;4.20;;;;;;;;;;3605221;39;20433;-73
2021/06/20 09:01:00;;;;;;;4.90;4.30;;;;;;;;;;3608906;39;20397;-73
2021/06/20 09:03:47;;;;;;;4.57;4.27;;;;;;;;;;3607902;39;20514;-73
2021/06/20 09:06:18;;;;;;;4.80;3.87;;;;;;;;;;3606260;39;20429;-74
2021/06/20 09:08:54;;;;;;;3.90;3.70;;;;;;;;;;3607689;39;20571;-73
2021/06/20 09:11:29;;;;;;;3.60;3.50;;;;;;;;;;3606549;39;20382;-74
2021/06/20 09:14:03;;;;;;;3.60;3.50;;;;;;;;;;3602186;39;20976;-74
2021/06/20 09:16:30;;;;;;;3.87;3.43;;;;;;;;;;3608959;39;20998;-73
2021/06/20 09:18:56;;;;;;;6.77;4.20;;;;;;;;;;3605296;39;20765;-73
2021/06/20 09:21:26;;;;;;;5.60;4.30;;;;;;;;;;3606559;39;20431;-73
2021/06/20 09:23:53;;;;;;;3.50;3.37;;;;;;;;;;3607918;39;20421;-74
2021/06/20 09:26:31;;;;;;;5.03;4.73;;;;;;;;;;3608981;39;20406;-74
2021/06/20 09:28:57;;;;;;;4.80;4.53;;;;;;;;;;3608067;39;20417;-74
2021/06/20 09:31:23;;;;;;;5.30;4.90;;;;;;;;;;3604816;39;20476;-73
2021/06/20 09:33:58;;;;;;;3.97;3.67;;;;;;;;;;3606639;39;20842;-74
2021/06/20 09:36:30;;;;;;;4.53;4.13;;;;;;;;;;3608352;39;20422;-74
2021/06/20 09:38:56;;;;;;;4.40;4.20;;;;;;;;;;3597716;39;20419;-73
2021/06/20 09:41:22;;;;;;;4.93;4.60;;;;;;;;;;3604643;39;20806;-74
2021/06/20 09:43:55;;;;;;;5.27;4.87;;;;;;;;;;3607294;39;20418;-74
2021/06/20 09:46:22;;;;;;;3.63;3.47;;;;;;;;;;3616141;39;20491;-73
2021/06/20 09:48:48;;;;;;;3.53;3.33;;;;;;;;;;3607934;39;20421;-73
2021/06/20 09:51:25;;;;;;;4.10;3.90;;;;;;;;;;3598455;39;20484;-73
2021/06/20 09:53:51;;;;;;;3.30;3.20;;;;;;;;;;3602372;39;20441;-75
2021/06/20 09:56:23;;;;;;;3.53;3.33;;;;;;;;;;3607378;39;20833;-73
2021/06/20 09:58:56;;;;;;;3.87;3.67;;;;;;;;;;3608744;39;20405;-73
2021/06/20 10:01:22;;;;;;;4.83;4.53;;;;;;;;;;3607899;39;20418;-73
2021/06/20 10:03:48;;;;;;;3.93;3.73;;;;;;;;;;3605182;39;21109;-73
2021/06/20 10:06:15;;;;;;;3.87;3.37;;;;;;;;;;3609235;39;20544;-73
2021/06/20 10:08:42;;;;;;;4.00;3.70;;;;;;;;;;3610638;39;20423;-73
2021/06/20 10:11:09;;;;;;;5.70;3.73;;;;;;;;;;3610464;39;20394;-73
2021/06/20 10:13:35;;;;;;;4.67;4.37;;;;;;;;;;3601556;39;20410;-73
2021/06/20 10:16:19;;;;;;;6.30;6.10;;;;;;;;;;3607737;39;20441;-73
2021/06/20 10:18:51;;;;;;;6.80;6.50;;;;;;;;;;3606654;39;20499;-73
2021/06/20 10:21:27;;;;;;;5.57;5.27;;;;;;;;;;3604319;39;20715;-73
2021/06/20 10:24:02;;;;;;;4.03;3.73;;;;;;;;;;3607153;39;20401;-74
2021/06/20 10:26:28;;;;;;;3.77;3.47;;;;;;;;;;3608849;39;20400;-73
2021/06/20 10:28:54;;;;;;;4.33;4.13;;;;;;;;;;3605534;39;20496;-74
2021/06/20 10:31:32;;;;;;;5.80;5.40;;;;;;;;;;3605707;39;20799;-74
2021/06/20 10:33:58;;;;;;;2.93;2.80;;;;;;;;;;3607090;39;20782;-74
2021/06/20 10:36:24;;;;;;;2.73;2.53;;;;;;;;;;3606347;39;20822;-74
2021/06/20 10:38:52;;;;;;;6.63;6.03;;;;;;;;;;3606330;39;20409;-74
2021/06/20 10:41:25;;;;;;;3.67;2.60;;;;;;;;;;3602829;39;20767;-74
2021/06/20 10:43:55;;;;;;;2.90;2.70;;;;;;;;;;3606438;39;20423;-74
2021/06/20 10:46:21;;;;;;;4.30;4.00;;;;;;;;;;3607559;39;20486;-74
2021/06/20 10:48:47;;;;;;;4.23;3.97;;;;;;;;;;3606945;39;20403;-74
2021/06/20 10:51:17;;;;;;;5.80;5.60;;;;;;;;;;3607277;39;20860;-75
2021/06/20 10:53:45;;;;;;;6.10;5.73;;;;;;;;;;3608545;39;20469;-74
2021/06/20 10:56:21;;;;;;;6.30;6.00;;;;;;;;;;3607786;39;20395;-74
2021/06/20 10:58:48;;;;;;;5.70;5.50;;;;;;;;;;3607164;39;20795;-74
2021/06/20 11:01:16;;;;;;;5.63;5.33;;;;;;;;;;3606972;39;20427;-75
2021/06/20 11:03:46;;;;;;;5.40;5.10;;;;;;;;;;3606995;39;20531;-74
2021/06/20 11:06:14;;;;;;;6.03;5.83;;;;;;;;;;3609139;39;20756;-74
2021/06/20 11:08:42;;;;;;;5.37;3.47;;;;;;;;;;3607013;39;20442;-74
2021/06/20 11:11:17;;;;;;;3.80;3.60;;;;;;;;;;3605879;39;20396;-73
2021/06/20 11:13:45;;;;;;;3.60;3.50;;;;;;;;;;3608469;39;20504;-74
2021/06/20 11:16:35;;;;;;;3.17;2.97;;;;;;;;;;3597700;39;20407;-73
2021/06/20 11:19:05;;;;;;;5.63;5.23;;;;;;;;;;3609511;39;20421;-74
2021/06/20 11:21:31;;;;;;;5.67;5.47;;;;;;;;;;3596896;39;20471;-73
2021/06/20 11:23:57;;;;;;;6.37;5.90;;;;;;;;;;3607699;39;20407;-73
2021/06/20 11:26:23;;;;;;;5.87;5.57;;;;;;;;;;3608908;39;20489;-73
2021/06/20 11:28:59;;;;;;;6.73;6.30;;;;;;;;;;3608631;39;20436;-73
2021/06/20 11:31:26;;;;;;;3.27;3.17;;;;;;;;;;3606672;39;20799;-73
2021/06/20 11:33:56;;;;;;;2.50;2.30;;;;;;;;;;3605800;39;20429;-73
2021/06/20 11:36:23;;;;;;;6.90;2.87;;;;;;;;;;3607826;39;20790;-73
2021/06/20 11:38:49;;;;;;;3.87;3.67;;;;;;;;;;3608821;39;20409;-73
2021/06/20 11:41:20;;;;;;;5.27;5.07;;;;;;;;;;3606909;39;20426;-73
2021/06/20 11:44:03;;;;;;;5.27;4.97;;;;;;;;;;3599128;39;20494;-73
2021/06/20 11:46:30;;;;;;;4.30;4.10;;;;;;;;;;3605644;39;20414;-74
2021/06/20 11:49:01;;;;;;;3.27;3.07;;;;;;;;;;3607295;39;20406;-74
2021/06/20 11:51:31;;;;;;;4.47;4.30;;;;;;;;;;3607959;39;20384;-73
2021/06/20 11:54:11;;;;;;;2.30;2.20;;;;;;;;;;3607241;39;20784;-74
2021/06/20 11:56:39;;;;;;;5.53;5.33;;;;;;;;;;3606923;39;20506;-73
2021/06/20 11:59:05;;;;;;;4.37;4.17;;;;;;;;;;3607349;39;20419;-74
2021/06/20 12:01:41;;;;;;;6.10;5.80;;;;;;;;;;3606247;39;20404;-74
2021/06/20 12:04:09;;;;;;;6.00;5.73;;;;;;;;;;3606511;39;20425;-73
2021/06/20 12:06:35;;;;;;;4.70;4.50;;;;;;;;;;3607164;39;20469;-74
2021/06/20 12:09:02;;;;;;;5.10;4.80;;;;;;;;;;3606493;39;20437;-74
2021/06/20 12:11:29;;;;;;;4.63;4.50;;;;;;;;;;3604373;39;20397;-74
2021/06/20 12:13:55;;;;;;;3.50;3.33;;;;;;;;;;3606971;39;20827;-74
2021/06/20 12:16:21;;;;;;;4.40;2.80;;;;;;;;;;3599219;39;20429;-74
2021/06/20 12:18:47;;;;;;;2.53;2.43;;;;;;;;;;3606721;39;20427;-74
2021/06/20 12:21:22;;;;;;;2.67;2.47;;;;;;;;;;3606548;39;20495;-73
2021/06/20 12:23:52;;;;;;;4.40;3.00;;;;;;;;;;3607016;39;20397;-73
2021/06/20 12:26:32;;;;;;;2.50;2.40;;;;;;;;;;3606062;39;20402;-73
2021/06/20 12:29:05;;;;;;;3.27;3.07;;;;;;;;;;3607987;39;20406;-74
2021/06/20 12:31:31;;;;;;;3.03;2.93;;;;;;;;;;3609514;39;20409;-73
2021/06/20 12:34:06;;;;;;;4.67;4.50;;;;;;;;;;3597379;39;20814;-73
2021/06/20 12:36:33;;;;;;;6.70;6.10;;;;;;;;;;3608476;39;20389;-73
2021/06/20 12:39:00;;;;;;;6.30;6.00;;;;;;;;;;3606288;39;20394;-73
2021/06/20 12:41:27;;;;;;;6.60;6.30;;;;;;;;;;3606179;39;20394;-72
2021/06/20 12:43:57;;;;;;;6.80;6.40;;;;;;;;;;3607008;39;20403;-73
2021/06/20 12:46:27;;;;;;;7.10;6.70;;;;;;;;;;3608670;39;20405;-73
2021/06/20 12:48:56;;;;;;;5.13;4.87;;;;;;;;;;3610418;39;20441;-73
2021/06/20 12:51:33;;;;;;;4.30;4.10;;;;;;;;;;3607081;39;20398;-73
2021/06/20 12:54:04;;;;;;;6.73;6.33;;;;;;;;;;3607848;39;20401;-73
2021/06/20 12:56:30;;;;;;;6.90;6.60;;;;;;;;;;3608335;39;20414;-73
2021/06/20 12:59:06;;;;;;;2.60;2.50;;;;;;;;;;3607067;39;20637;-74
2021/06/20 13:01:53;;;;;;;3.20;3.10;;;;;;;;;;3608804;39;20401;-75
2021/06/20 13:04:20;;;;;;;4.77;4.57;;;;;;;;;;3605029;39;20420;-75
2021/06/20 13:06:49;;;;;;;4.43;4.03;;;;;;;;;;3595466;39;20434;-74
2021/06/20 13:09:15;;;;;;;4.73;4.43;;;;;;;;;;3604915;39;20424;-75
2021/06/20 13:11:42;;;;;;;3.43;3.23;;;;;;;;;;3603937;39;20412;-76
2021/06/20 13:14:18;;;;;;;3.53;3.23;;;;;;;;;;3590606;39;20861;-75
2021/06/20 13:16:45;;;;;;;7.00;3.87;;;;;;;;;;3608777;39;20503;-75
2021/06/20 13:19:11;;;;;;;4.00;3.80;;;;;;;;;;3607811;39;20426;-75
2021/06/20 13:21:38;;;;;;;4.70;4.37;;;;;;;;;;3605848;39;20403;-75
2021/06/20 13:24:07;;;;;;;4.20;3.90;;;;;;;;;;3607598;39;20462;-74
2021/06/20 13:26:33;;;;;;;4.43;4.23;;;;;;;;;;3606567;39;20494;-74
2021/06/20 13:28:59;;;;;;;4.63;4.43;;;;;;;;;;3608564;39;20442;-74
2021/06/20 13:31:26;;;;;;;3.10;2.70;;;;;;;;;;3608210;39;20434;-74
2021/06/20 13:33:56;;;;;;;5.90;5.70;;;;;;;;;;3607193;39;20398;-74
2021/06/20 13:36:23;;;;;;;5.43;5.00;;;;;;;;;;3605649;39;20446;-75
2021/06/20 13:38:50;;;;;;;4.47;4.27;;;;;;;;;;3607777;39;20410;-76
2021/06/20 13:41:16;;;;;;;5.23;4.80;;;;;;;;;;3607154;39;20393;-75
2021/06/20 13:43:42;;;;;;;4.60;4.40;;;;;;;;;;3597226;39;20421;-76
2021/06/20 13:46:09;;;;;;;4.87;4.53;;;;;;;;;;3607784;39;20434;-75
2021/06/20 13:48:35;;;;;;;4.20;4.00;;;;;;;;;;3607895;39;20409;-75
2021/06/20 13:51:01;;;;;;;4.70;4.50;;;;;;;;;;3608752;39;20397;-74
2021/06/20 13:53:28;;;;;;;4.70;4.50;;;;;;;;;;3605226;39;20639;-74
2021/06/20 13:55:54;;;;;;;4.70;4.40;;;;;;;;;;3605108;39;20489;-74
2021/06/20 13:58:20;;;;;;;4.60;3.87;;;;;;;;;;3608621;39;20724;-75
2021/06/20 14:00:46;;;;;;;4.50;4.30;;;;;;;;;;3608296;39;20440;-75
2021/06/20 14:03:12;;;;;;;4.40;4.20;;;;;;;;;;3604694;39;20755;-75
2021/06/20 14:05:38;;;;;;;4.80;3.60;;;;;;;;;;3613850;39;20607;-74
2021/06/20 14:08:04;;;;;;;3.67;3.40;;;;;;;;;;3606559;39;20469;-74
2021/06/20 14:10:31;;;;;;;4.90;4.70;;;;;;;;;;3606315;39;20472;-75
2021/06/20 14:12:59;;;;;;;4.20;4.00;;;;;;;;;;3607697;39;20802;-74
2021/06/20 14:15:25;;;;;;;4.57;4.30;;;;;;;;;;3608214;39;20406;-74
2021/06/20 14:17:51;;;;;;;3.80;3.70;;;;;;;;;;3603753;39;20406;-74
2021/06/20 14:20:18;;;;;;;3.90;3.70;;;;;;;;;;3602000;39;20395;-74
2021/06/20 14:22:45;;;;;;;4.93;4.63;;;;;;;;;;3605654;39;20395;-74
2021/06/20 14:25:12;;;;;;;3.00;2.80;;;;;;;;;;3607843;39;20563;-74
2021/06/20 14:27:38;;;;;;;2.57;2.47;;;;;;;;;;3609428;39;20517;-74
2021/06/20 14:30:05;;;;;;;3.00;2.80;;;;;;;;;;3604352;39;20401;-74
2021/06/20 14:32:32;;;;;;;5.70;5.30;;;;;;;;;;3606121;39;20402;-74
2021/06/20 14:34:58;;;;;;;6.33;6.03;;;;;;;;;;3607552;39;20414;-74